createdAt,value
2023-03-30T00:01:21.387Z,38.44
2023-03-30T00:04:11.544Z,38.21
2023-03-30T00:07:00.408Z,38.13
2023-03-30T00:09:51.469Z,38.41
2023-03-30T00:12:43.583Z,38.24
2023-03-30T00:15:32.355Z,38.37
2023-03-30T00:18:21.324Z,38.01
2023-03-30T00:21:11.146Z,38.27
2023-03-30T00:23:59.935Z,38.24
2023-03-30T00:26:48.740Z,38.17
2023-03-30T00:29:38.743Z,37.95
2023-03-30T00:32:27.370Z,37.93
2023-03-30T00:35:16.051Z,37.75
2023-03-30T00:38:05.916Z,38.18
2023-03-30T00:40:56.005Z,37.80
2023-03-30T00:43:58.259Z,38.23
2023-03-30T00:46:48.386Z,38.36
2023-03-30T00:49:37.113Z,37.81
2023-03-30T00:52:27.959Z,38.20
2023-03-30T00:55:16.665Z,38.25
2023-03-30T00:58:06.658Z,38.15
2023-03-30T01:00:55.448Z,37.88
2023-03-30T01:03:48.071Z,38.12
2023-03-30T01:06:40.338Z,38.17
2023-03-30T01:09:29.284Z,38.12
2023-03-30T01:12:17.860Z,38.11
2023-03-30T01:15:08.834Z,38.37
2023-03-30T01:18:19.650Z,37.87
2023-03-30T01:21:46.342Z,38.00
2023-03-30T01:25:06.440Z,38.02
2023-03-30T01:28:13.367Z,38.02
2023-03-30T01:31:31.876Z,37.65
2023-03-30T01:34:48.099Z,37.85
2023-03-30T01:37:54.631Z,38.05
2023-03-30T01:40:47.495Z,37.91
2023-03-30T01:43:39.932Z,37.68
2023-03-30T01:46:30.542Z,38.20
2023-03-30T01:49:24.277Z,38.07
2023-03-30T01:52:17.722Z,37.98
2023-03-30T01:55:10.901Z,38.00
2023-03-30T01:58:03.918Z,37.70
2023-03-30T02:00:52.954Z,37.76
2023-03-30T02:03:43.784Z,37.98
2023-03-30T02:06:39.853Z,38.09
2023-03-30T02:09:31.611Z,37.92
2023-03-30T02:12:21.194Z,37.80
2023-03-30T02:15:14.027Z,37.93
2023-03-30T02:18:03.107Z,37.82
2023-03-30T02:20:51.817Z,38.03
2023-03-30T02:23:44.196Z,38.12
2023-03-30T02:26:34.050Z,37.92
2023-03-30T02:29:23.406Z,38.11
2023-03-30T02:32:18.869Z,38.01
2023-03-30T02:35:22.246Z,38.08
2023-03-30T02:38:55.075Z,38.52
2023-03-30T02:42:03.985Z,38.26
2023-03-30T02:44:57.778Z,38.29
2023-03-30T02:47:58.738Z,38.18
2023-03-30T02:50:50.492Z,38.15
2023-03-30T02:53:45.377Z,38.40
2023-03-30T02:56:38.657Z,38.24
2023-03-30T02:59:30.476Z,38.44
2023-03-30T03:02:21.972Z,38.51
2023-03-30T03:05:14.782Z,37.95
2023-03-30T03:08:03.410Z,38.10
2023-03-30T03:10:52.260Z,38.08
2023-03-30T03:13:42.276Z,38.35
2023-03-30T03:16:30.948Z,38.10
2023-03-30T03:19:19.558Z,38.46
2023-03-30T03:22:09.535Z,38.02
2023-03-30T03:24:58.181Z,38.44
2023-03-30T03:27:47.267Z,38.44
2023-03-30T03:30:35.994Z,38.58
2023-03-30T03:33:24.871Z,38.27
2023-03-30T03:36:13.540Z,38.24
2023-03-30T03:39:04.479Z,38.24
2023-03-30T03:41:53.167Z,38.15
2023-03-30T03:44:41.836Z,38.12
2023-03-30T03:47:30.471Z,38.24
2023-03-30T03:50:19.295Z,38.26
2023-03-30T03:53:07.989Z,38.04
2023-03-30T03:55:58.038Z,38.33
2023-03-30T03:58:46.715Z,38.27
2023-03-30T04:01:35.733Z,37.94
2023-03-30T04:04:24.540Z,38.18
2023-03-30T04:07:13.585Z,38.15
2023-03-30T04:10:02.201Z,38.16
2023-03-30T04:12:52.376Z,37.81
2023-03-30T04:15:41.155Z,38.26
2023-03-30T04:18:31.494Z,38.09
2023-03-30T04:21:20.310Z,38.14
2023-03-30T04:24:12.149Z,38.11
2023-03-30T04:27:00.768Z,38.55
2023-03-30T04:29:50.748Z,38.76
2023-03-30T04:32:41.160Z,38.51
2023-03-30T04:35:31.638Z,38.94
2023-03-30T04:38:22.634Z,38.41
2023-03-30T04:41:14.166Z,38.63
2023-03-30T04:44:04.359Z,38.91
2023-03-30T04:46:54.550Z,38.60
2023-03-30T04:49:43.291Z,39.03
2023-03-30T04:52:31.972Z,38.95
2023-03-30T04:55:20.690Z,38.74
2023-03-30T04:58:10.667Z,38.80
2023-03-30T05:01:03.475Z,38.78
2023-03-30T05:03:53.673Z,38.57
2023-03-30T05:06:44.189Z,38.33
2023-03-30T05:09:32.787Z,38.64
2023-03-30T05:12:21.760Z,38.58
2023-03-30T05:15:11.107Z,38.60
2023-03-30T05:18:01.645Z,38.41
2023-03-30T05:20:52.338Z,38.70
2023-03-30T05:23:42.918Z,38.32
2023-03-30T05:26:31.794Z,38.49
2023-03-30T05:29:20.433Z,38.34
2023-03-30T05:32:09.278Z,38.60
2023-03-30T05:34:57.962Z,38.55
2023-03-30T05:37:50.399Z,38.25
2023-03-30T05:40:39.091Z,38.37
2023-03-30T05:43:27.768Z,38.50
2023-03-30T05:46:16.605Z,38.58
2023-03-30T05:49:05.278Z,38.29
2023-03-30T05:51:53.995Z,38.60
2023-03-30T05:54:43.940Z,38.31
2023-03-30T05:57:33.177Z,38.50
2023-03-30T06:00:23.196Z,38.53
2023-03-30T06:03:12.400Z,38.28
2023-03-30T06:06:03.685Z,38.27
2023-03-30T06:08:52.361Z,38.49
2023-03-30T06:11:42.357Z,38.41
2023-03-30T06:14:31.141Z,38.24
2023-03-30T06:17:19.861Z,38.23
2023-03-30T06:20:12.425Z,38.34
2023-03-30T06:23:01.687Z,38.24
2023-03-30T06:25:53.248Z,38.56
2023-03-30T06:28:43.615Z,39.02
2023-03-30T06:31:32.690Z,39.37
2023-03-30T06:34:21.516Z,39.07
2023-03-30T06:37:10.266Z,39.14
2023-03-30T06:39:59.148Z,39.08
2023-03-30T06:42:48.049Z,39.17
2023-03-30T06:45:38.139Z,39.05
2023-03-30T06:48:26.908Z,38.87
2023-03-30T06:51:15.656Z,39.18
2023-03-30T06:54:04.423Z,38.81
2023-03-30T06:56:53.713Z,38.95
2023-03-30T06:59:42.452Z,38.67
2023-03-30T07:02:33.127Z,38.66
2023-03-30T07:05:24.876Z,38.69
2023-03-30T07:08:15.741Z,38.49
2023-03-30T07:11:05.045Z,38.59
2023-03-30T07:13:56.260Z,38.58
2023-03-30T07:16:45.059Z,38.43
2023-03-30T07:19:35.101Z,38.08
2023-03-30T07:22:23.872Z,38.10
2023-03-30T07:25:12.528Z,38.59
2023-03-30T07:28:02.159Z,38.33
2023-03-30T07:30:50.935Z,38.65
2023-03-30T07:33:39.959Z,38.84
2023-03-30T07:36:30.012Z,38.77
2023-03-30T07:39:18.804Z,38.57
2023-03-30T07:42:07.803Z,38.71
2023-03-30T07:44:56.365Z,39.06
2023-03-30T07:47:45.097Z,38.90
2023-03-30T07:50:33.877Z,39.20
2023-03-30T07:53:23.961Z,38.94
2023-03-30T07:56:12.613Z,38.78
2023-03-30T07:59:01.923Z,38.61
2023-03-30T08:01:56.881Z,38.86
2023-03-30T08:04:45.884Z,38.50
2023-03-30T08:07:35.451Z,38.76
2023-03-30T08:10:25.551Z,37.80
2023-03-30T08:13:14.853Z,37.59
2023-03-30T08:16:03.455Z,37.25
2023-03-30T08:18:54.903Z,37.40
2023-03-30T08:21:43.540Z,36.86
2023-03-30T08:24:32.223Z,36.93
2023-03-30T08:27:22.474Z,37.05
2023-03-30T08:30:13.263Z,36.83
2023-03-30T08:33:02.123Z,37.08
2023-03-30T08:35:51.507Z,37.36
2023-03-30T08:38:40.571Z,37.51
2023-03-30T08:41:47.965Z,36.94
2023-03-30T08:44:39.181Z,36.68
2023-03-30T08:47:33.497Z,36.79
2023-03-30T08:50:29.408Z,36.50
2023-03-30T08:53:18.138Z,36.51
2023-03-30T08:56:11.077Z,36.76
2023-03-30T08:59:07.413Z,37.17
2023-03-30T09:02:00.432Z,36.91
2023-03-30T09:05:02.130Z,36.59
2023-03-30T09:07:56.180Z,36.10
2023-03-30T09:10:47.552Z,36.51
2023-03-30T09:13:38.004Z,36.63
2023-03-30T09:16:34.538Z,36.69
2023-03-30T09:19:29.687Z,36.41
2023-03-30T09:22:20.246Z,36.51
2023-03-30T09:25:15.831Z,36.32
2023-03-30T09:28:10.159Z,36.33
2023-03-30T09:31:02.824Z,36.07
2023-03-30T09:33:58.915Z,36.94
2023-03-30T09:36:53.166Z,36.99
2023-03-30T09:39:42.273Z,37.53
2023-03-30T09:42:37.095Z,37.48
2023-03-30T09:45:29.335Z,37.77
2023-03-30T09:48:19.014Z,38.12
2023-03-30T09:51:19.633Z,38.43
2023-03-30T09:54:15.664Z,38.83
2023-03-30T09:57:04.264Z,38.91
2023-03-30T09:59:55.752Z,38.64
2023-03-30T10:02:57.442Z,39.01
2023-03-30T10:05:46.237Z,39.22
2023-03-30T10:08:36.470Z,38.66
2023-03-30T10:11:37.583Z,38.47
2023-03-30T10:14:31.584Z,38.29
2023-03-30T10:17:21.420Z,38.36
2023-03-30T10:20:19.324Z,38.51
2023-03-30T10:23:15.880Z,38.68
2023-03-30T10:26:05.666Z,38.83
2023-03-30T10:28:58.013Z,38.75
2023-03-30T10:31:48.636Z,39.21
2023-03-30T10:34:39.290Z,39.87
2023-03-30T10:37:32.531Z,39.70
2023-03-30T10:40:23.524Z,39.92
2023-03-30T10:43:15.592Z,39.61
2023-03-30T10:46:20.178Z,39.20
2023-03-30T10:49:14.774Z,39.19
2023-03-30T10:52:10.803Z,39.02
2023-03-30T10:55:04.222Z,39.12
2023-03-30T10:57:58.553Z,39.22
2023-03-30T11:00:56.950Z,39.25
2023-03-30T11:03:49.448Z,39.12
2023-03-30T11:06:41.810Z,39.04
2023-03-30T11:09:34.609Z,38.92
2023-03-30T11:12:24.648Z,38.63
2023-03-30T11:15:18.053Z,39.12
2023-03-30T11:18:12.199Z,39.01
2023-03-30T11:21:03.401Z,39.27
2023-03-30T11:23:55.058Z,38.81
2023-03-30T11:26:47.179Z,39.16
2023-03-30T11:29:38.876Z,39.09
2023-03-30T11:32:32.366Z,38.73
2023-03-30T11:35:27.101Z,38.74
2023-03-30T11:38:21.389Z,38.76
2023-03-30T11:41:15.351Z,38.47
2023-03-30T11:44:04.191Z,38.63
2023-03-30T11:46:59.968Z,38.92
2023-03-30T11:49:58.279Z,38.56
2023-03-30T11:52:55.518Z,38.74
2023-03-30T11:56:01.985Z,38.81
2023-03-30T11:59:00.332Z,38.91
2023-03-30T12:02:06.851Z,38.44
2023-03-30T12:04:59.396Z,38.26
2023-03-30T12:07:53.995Z,38.10
2023-03-30T12:10:46.277Z,38.56
2023-03-30T12:13:50.285Z,38.14
2023-03-30T12:16:44.653Z,37.97
2023-03-30T12:19:52.957Z,37.75
2023-03-30T12:22:48.574Z,37.82
2023-03-30T12:25:54.386Z,38.03
2023-03-30T12:32:07.649Z,37.61
2023-03-30T12:34:56.892Z,37.83
2023-03-30T12:37:49.384Z,37.83
2023-03-30T12:40:38.167Z,37.33
2023-03-30T12:43:34.517Z,37.07
2023-03-30T12:46:28.038Z,36.97
2023-03-30T12:49:24.257Z,37.28
2023-03-30T12:52:16.007Z,37.38
2023-03-30T12:55:17.689Z,37.36
2023-03-30T12:58:18.603Z,36.88
2023-03-30T13:01:28.352Z,37.03
2023-03-30T13:04:19.578Z,37.37
2023-03-30T13:07:10.563Z,37.20
2023-03-30T13:10:02.780Z,36.96
2023-03-30T13:12:52.837Z,37.67
2023-03-30T13:15:44.105Z,37.69
2023-03-30T13:18:37.271Z,37.74
2023-03-30T13:21:26.825Z,38.20
2023-03-30T13:24:29.416Z,38.01
2023-03-30T13:27:29.641Z,37.88
2023-03-30T13:30:18.827Z,37.55
2023-03-30T13:33:15.528Z,37.45
2023-03-30T13:36:11.088Z,37.19
2023-03-30T13:39:05.436Z,37.56
2023-03-30T13:42:03.275Z,36.94
2023-03-30T13:44:58.356Z,36.90
2023-03-30T13:48:02.738Z,36.77
2023-03-30T13:50:54.091Z,36.72
2023-03-30T13:53:48.489Z,36.87
2023-03-30T13:56:39.465Z,37.00
2023-03-30T13:59:29.752Z,36.45
2023-03-30T14:02:19.647Z,36.80
2023-03-30T14:05:21.651Z,36.84
2023-03-30T14:08:11.391Z,36.30
2023-03-30T14:11:02.720Z,36.26
2023-03-30T14:13:53.369Z,35.70
2023-03-30T14:16:42.762Z,35.83
2023-03-30T14:19:35.333Z,35.57
2023-03-30T14:22:27.366Z,35.07
2023-03-30T14:25:28.699Z,35.30
2023-03-30T14:28:21.001Z,35.84
2023-03-30T14:31:19.547Z,36.37
2023-03-30T14:34:24.311Z,36.21
2023-03-30T14:37:13.428Z,36.37
2023-03-30T14:40:02.156Z,36.55
2023-03-30T14:42:50.743Z,36.05
2023-03-30T14:45:41.549Z,36.07
2023-03-30T14:48:32.723Z,36.04
2023-03-30T14:51:25.266Z,36.05
2023-03-30T14:54:16.739Z,35.91
2023-03-30T14:57:07.609Z,36.01
2023-03-30T14:59:59.359Z,36.22
2023-03-30T15:02:51.782Z,36.44
2023-03-30T15:05:42.731Z,36.58
2023-03-30T15:08:33.804Z,36.11
2023-03-30T15:11:24.332Z,36.38
2023-03-30T15:14:17.159Z,36.19
2023-03-30T15:17:11.100Z,35.96
2023-03-30T15:20:02.788Z,36.11
2023-03-30T15:22:53.439Z,35.71
2023-03-30T15:25:42.164Z,35.50
2023-03-30T15:28:33.062Z,36.05
2023-03-30T15:31:22.044Z,36.14
2023-03-30T15:34:16.377Z,36.26
2023-03-30T15:37:22.746Z,36.20
2023-03-30T15:40:32.401Z,36.15
2023-03-30T15:43:22.311Z,35.79
2023-03-30T15:46:14.843Z,35.43
2023-03-30T15:49:03.814Z,35.79
2023-03-30T15:51:53.731Z,35.97
2023-03-30T15:54:46.145Z,35.18
2023-03-30T15:57:35.293Z,35.31
2023-03-30T16:00:25.953Z,35.62
2023-03-30T16:03:14.794Z,35.96
2023-03-30T16:06:03.429Z,36.03
2023-03-30T16:08:52.068Z,36.35
2023-03-30T16:11:42.172Z,36.52
2023-03-30T16:14:32.009Z,37.42
2023-03-30T16:17:20.794Z,37.73
2023-03-30T16:20:16.655Z,37.43
2023-03-30T16:23:05.529Z,37.88
2023-03-30T16:25:54.146Z,37.93
2023-03-30T16:28:44.560Z,38.30
2023-03-30T16:31:35.387Z,38.32
2023-03-30T16:34:24.095Z,38.57
2023-03-30T16:37:12.926Z,38.54
2023-03-30T16:40:01.944Z,39.10
2023-03-30T16:42:50.619Z,39.05
2023-03-30T16:45:40.850Z,38.96
2023-03-30T16:48:29.473Z,38.91
2023-03-30T16:51:19.806Z,38.86
2023-03-30T16:54:19.529Z,38.88
2023-03-30T16:57:12.535Z,38.48
2023-03-30T17:00:01.151Z,38.76
2023-03-30T17:02:51.698Z,38.20
2023-03-30T17:05:40.993Z,37.96
2023-03-30T17:08:30.539Z,38.04
2023-03-30T17:11:19.484Z,38.23
2023-03-30T17:14:08.140Z,37.95
2023-03-30T17:16:56.878Z,38.58
2023-03-30T17:19:46.990Z,38.54
2023-03-30T17:22:35.562Z,38.91
2023-03-30T17:25:26.456Z,39.49
2023-03-30T17:28:21.906Z,39.33
2023-03-30T17:31:16.575Z,38.61
2023-03-30T17:34:06.656Z,38.03
2023-03-30T17:36:56.593Z,37.40
2023-03-30T17:39:45.263Z,37.21
2023-03-30T17:42:33.953Z,37.30
2023-03-30T17:45:24.744Z,37.03
2023-03-30T17:48:16.335Z,36.93
2023-03-30T17:51:05.141Z,36.84
2023-03-30T17:53:55.283Z,36.79
2023-03-30T17:56:43.874Z,36.87
2023-03-30T17:59:32.517Z,36.41
2023-03-30T18:02:21.196Z,36.65
2023-03-30T18:05:10.755Z,36.53
2023-03-30T18:07:59.598Z,36.48
2023-03-30T18:10:51.660Z,36.83
2023-03-30T18:13:40.381Z,36.54
2023-03-30T18:16:29.012Z,37.04
2023-03-30T18:19:17.591Z,37.12
2023-03-30T18:22:06.573Z,37.03
2023-03-30T18:24:55.261Z,37.15
2023-03-30T18:27:46.455Z,39.11
2023-03-30T18:30:37.965Z,38.97
2023-03-30T18:33:27.096Z,38.23
2023-03-30T18:36:15.959Z,38.67
2023-03-30T18:39:04.853Z,38.98
2023-03-30T18:41:53.489Z,39.18
2023-03-30T18:44:43.481Z,37.78
2023-03-30T18:47:32.134Z,38.51
2023-03-30T18:50:23.698Z,39.74
2023-03-30T18:53:13.928Z,39.80
2023-03-30T18:56:03.465Z,39.69
2023-03-30T18:58:52.389Z,40.10
2023-03-30T19:01:42.425Z,40.22
2023-03-30T19:04:31.080Z,40.70
2023-03-30T19:07:19.688Z,40.54
2023-03-30T19:10:11.598Z,40.00
2023-03-30T19:13:00.399Z,40.24
2023-03-30T19:15:50.251Z,40.39
2023-03-30T19:18:40.398Z,40.53
2023-03-30T19:21:29.069Z,40.31
2023-03-30T19:24:17.694Z,40.99
2023-03-30T19:27:07.612Z,40.95
2023-03-30T19:29:57.388Z,41.08
2023-03-30T19:32:46.717Z,40.74
2023-03-30T19:35:36.885Z,40.92
2023-03-30T19:38:25.591Z,40.67
2023-03-30T19:41:14.142Z,40.89
2023-03-30T19:44:02.788Z,41.22
2023-03-30T19:46:51.399Z,40.58
2023-03-30T19:49:40.211Z,40.54
2023-03-30T19:52:30.241Z,40.69
2023-03-30T19:55:19.745Z,38.80
2023-03-30T19:58:08.444Z,38.29
2023-03-30T20:00:57.417Z,37.90
2023-03-30T20:03:46.010Z,38.42
2023-03-30T20:06:35.904Z,38.01
2023-03-30T20:09:27.572Z,38.92
2023-03-30T20:12:16.636Z,39.06
2023-03-30T20:15:06.507Z,38.24
2023-03-30T20:17:56.635Z,38.71
2023-03-30T20:20:45.473Z,39.33
2023-03-30T20:23:34.081Z,39.10
2023-03-30T20:26:24.042Z,39.19
2023-03-30T20:29:12.744Z,39.01
2023-03-30T20:32:01.419Z,38.88
2023-03-30T20:34:50.142Z,39.13
2023-03-30T20:37:38.758Z,39.80
2023-03-30T20:40:27.382Z,39.92
2023-03-30T20:43:17.351Z,39.48
2023-03-30T20:46:09.684Z,39.72
2023-03-30T20:49:02.098Z,40.37
2023-03-30T20:51:51.716Z,39.82
2023-03-30T20:54:41.019Z,39.45
2023-03-30T20:57:29.790Z,40.08
2023-03-30T21:00:21.275Z,40.68
2023-03-30T21:03:10.003Z,40.53
2023-03-30T21:06:02.817Z,40.01
2023-03-30T21:08:52.102Z,40.01
2023-03-30T21:11:40.942Z,39.77
2023-03-30T21:14:29.840Z,40.01
2023-03-30T21:17:19.813Z,39.88
2023-03-30T21:20:11.002Z,38.88
2023-03-30T21:22:59.608Z,39.74
2023-03-30T21:25:48.246Z,39.91
2023-03-30T21:28:37.935Z,39.92
2023-03-30T21:31:26.625Z,39.84
2023-03-30T21:34:18.650Z,39.94
2023-03-30T21:37:07.360Z,39.96
2023-03-30T21:39:56.158Z,39.97
2023-03-30T21:42:45.052Z,40.06
2023-03-30T21:45:33.664Z,40.19
2023-03-30T21:48:22.357Z,40.65
2023-03-30T21:51:14.044Z,40.80
2023-03-30T21:54:02.722Z,40.87
2023-03-30T21:56:51.423Z,40.88
2023-03-30T21:59:40.153Z,41.29
2023-03-30T22:02:28.923Z,41.26
2023-03-30T22:05:17.740Z,41.50
2023-03-30T22:08:08.224Z,41.72
2023-03-30T22:10:58.309Z,42.15
2023-03-30T22:13:48.505Z,41.90
2023-03-30T22:16:37.657Z,41.78
2023-03-30T22:19:26.655Z,41.66
2023-03-30T22:22:15.227Z,42.02
2023-03-30T22:25:05.939Z,41.84
2023-03-30T22:27:55.170Z,41.92
2023-03-30T22:30:43.977Z,41.78
2023-03-30T22:33:32.539Z,42.06
2023-03-30T22:36:22.618Z,41.87
2023-03-30T22:39:11.238Z,42.00
2023-03-30T22:42:01.218Z,42.21
2023-03-30T22:44:50.590Z,42.38
2023-03-30T22:47:39.241Z,41.98
2023-03-30T22:50:29.748Z,42.15
2023-03-30T22:53:18.467Z,41.92
2023-03-30T22:56:08.039Z,42.05
2023-03-30T22:58:58.635Z,42.43
2023-03-30T23:01:47.466Z,41.73
2023-03-30T23:04:36.250Z,41.98
2023-03-30T23:07:24.901Z,41.90
2023-03-30T23:10:16.048Z,42.02
2023-03-30T23:13:05.118Z,42.30
2023-03-30T23:15:56.226Z,42.46
2023-03-30T23:18:44.948Z,41.82
2023-03-30T23:21:35.814Z,42.10
2023-03-30T23:24:24.957Z,41.81
2023-03-30T23:27:13.488Z,41.93
2023-03-30T23:30:02.197Z,41.99
2023-03-30T23:32:52.301Z,42.07
2023-03-30T23:35:42.145Z,42.33
2023-03-30T23:38:31.801Z,42.06
2023-03-30T23:41:22.172Z,42.09
2023-03-30T23:44:11.163Z,42.06
2023-03-30T23:46:59.935Z,42.03
2023-03-30T23:49:53.302Z,42.21
2023-03-30T23:52:42.150Z,42.01
2023-03-30T23:55:33.737Z,41.75
2023-03-30T23:58:23.016Z,41.74
